This is the latest recevied weather packets stored in our database for station/object G7GQA-4. If no packets are shown the sender has not sent any weather packets the latest 10 day(s).
| Time | Temp. | Humidity | Pressure | Rain* | Wind** | Luminosity | Snow |
|---|---|---|---|---|---|---|---|
| 1777977023 | 13.33° C | 66% | - | 0 mm | - | 513 W/m² | - |
| 1777976422 | 13.33° C | 66% | - | 0 mm | - | 470 W/m² | - |
| 1777975822 | 12.78° C | 69% | - | 0 mm | - | 322 W/m² | - |
| 1777975222 | 13.33° C | 65% | - | 0 mm | - | 531 W/m² | - |
| 1777974622 | 13.33° C | 65% | - | 0 mm | - | 589 W/m² | - |
| 1777974022 | 12.78° C | 68% | - | 0 mm | - | 676 W/m² | - |
| 1777973422 | 12.78° C | 70% | - | 0 mm | - | 717 W/m² | - |
| 1777972822 | 12.22° C | 72% | - | 0 mm | - | 718 W/m² | - |
| 1777972223 | 11.11° C | 74% | - | 0 mm | - | 578 W/m² | - |
| 1777971622 | 11.67° C | 74% | - | 0 mm | - | 408 W/m² | - |
| 1777971022 | 10.56° C | 78% | - | 0 mm | - | 402 W/m² | - |
| 1777970421 | 10.56° C | 79% | - | 0 mm | - | 246 W/m² | - |
| 1777969821 | 10.56° C | 80% | - | 0 mm | - | 229 W/m² | - |
| 1777935322 | 7.78° C | 93% | - | 0 mm | - | 0 W/m² | - |
| 1777934722 | 8.33° C | 92% | - | 0 mm | - | 0 W/m² | - |
| 1777934122 | 8.33° C | 92% | - | 0 mm | - | 0 W/m² | - |
| 1777933522 | 8.89° C | 92% | - | 0 mm | - | 0 W/m² | - |
| 1777932922 | 8.33° C | 92% | - | 0 mm | - | 0 W/m² | - |
| 1777932322 | 8.33° C | 92% | - | 0 mm | - | 0 W/m² | - |
| 1777931721 | 8.89° C | 92% | - | 0 mm | - | 0 W/m² | - |
| 1777931122 | 8.89° C | 92% | - | 0 mm | - | 0 W/m² | - |
| 1777930522 | 8.89° C | 92% | - | 0 mm | - | 0 W/m² | - |
| 1777929922 | 9.44° C | 91% | - | 0 mm | - | 0 W/m² | - |
| 1777929322 | 9.44° C | 91% | - | 0 mm | - | 0 W/m² | - |
| 1777928722 | 9.44° C | 91% | - | 0 mm | - | 0 W/m² | - |
* Rain latest hour (hover to see other rain measurements)
** Current wind speed in m/s (hover to see current wind gust speed)